Indian Springs, Nevada Weather observations

Data are for observation ending at time listed.
 Day   Time    Ave.   Ave.  Ave.  Vector   Max.   Stn.    Total    Solar   Ave.  
  of    of     Air    Rel.  Wind   Wind    Wind   Baro.  Precip.   Rad.    Soil  
Year   Day     Temp.  Hum.  Speed  Dir.    Gust   Pres.                    Temp. 
2016   (PST)    F      %     mph   deg.    mph     mb.     in.     W/m2     F   
------------------------------------------------------------------------------
 272    2:20   65.8    28    0.7   230      1.4   908.3    0.00       0    78.4
 272    2:30   65.5    28    0.8   208      2.0   908.1    0.00       0    78.2
 272    2:40   65.5    29    0.8   221      1.6   908.1    0.00       0    78.1
 272    2:50   65.7    28    0.8   244      2.0   907.5    0.00       0    78.0
 272    3:00   65.2    29    0.3   187      0.9   908.2    0.00       0    77.9
 272    3:10   64.1    32    0.3   182      1.2   908.4    0.00       0    77.7
 272    3:20   64.0    32    0.6   191      1.5   908.3    0.00       0    77.6
 272    3:30   64.8    31    0.2   182      1.0   908.5    0.00       0    77.5
 272    3:40   65.4    31    0.8   309      2.9   908.3    0.00       0    77.3
 272    3:50   65.8    31    0.0     2      0.7   908.3    0.00       0    77.2
 272    4:00   66.0    31    0.2   239      1.4   908.9    0.00       0    77.1
 272    4:10   65.7    30    0.6   311      2.5   908.5    0.00       0    77.0
 272    4:20   66.2    31    1.0   341      2.5   908.7    0.00       0    76.9
 272    4:30   66.1    30    0.8    42      2.7   908.8    0.00       0    76.8
 272    4:40   65.7    32    1.7    72      3.3   908.8    0.00       0    76.7
 272    4:50   65.5    32    1.3    96      3.5   908.7    0.00       0    76.6
 272    5:00   65.2    33    0.5   197      1.3   908.9    0.00       0    76.5
 272    5:10   65.3    35    0.1   169      0.8   909.2    0.00       0    76.4
 272    5:20   65.3    35    1.7   305      3.4   909.0    0.00       0    76.3
 272    5:30   65.2    32    1.9   302      3.1   909.0    0.00       0    76.2
 272    5:40   65.1    34    0.3   310      1.0   909.1    0.00       2    76.2
 272    5:50   64.8    35    0.5   293      1.7   909.3    0.00       4    76.1
 272    6:00   64.8    34    0.6   220      2.4   909.4    0.00       8    76.0
 272    6:10   64.9    33    1.2   213      2.6   909.4    0.00      15    75.9
 272    6:20   65.1    33    1.4   230      3.1   910.2    0.00      22    75.8
 272    6:30   65.6    34    1.9   218      3.3   909.6    0.00      28    75.8
 272    6:40   66.0    34    2.1   217      3.6   909.4    0.00      34    75.7
 272    6:50   67.0    34    1.9   224      3.4   909.4    0.00      45    75.6
 272    7:00   67.5    34    1.4   302      3.4   910.0    0.00      44    75.5
 272    7:10   67.9    33    1.4   247      2.8   910.5    0.00      47    75.5
 272    7:20   68.0    31    1.9   237      3.0   910.6    0.00      51    75.4
 272    7:30   68.3    33    1.5   236      3.1   910.3    0.00      44    75.4
 272    7:40   68.3    36    0.8    86      2.3   911.1    0.00      39    75.3
 272    7:50   67.4    43    0.8    48      2.3   911.6    0.00      42    75.3
 272    8:00   66.6    49    1.8   306      3.1   911.2    0.00      95    75.3
 272    8:10   67.0    52    1.9   261      4.5   910.8    0.00     287    75.3
 272    8:20   67.9    50    2.5   293      5.2   910.9    0.00     450    75.3
 272    8:30   68.9    50    3.1   295      5.8   911.0    0.00     340    75.2
 272    8:40   70.0    48    1.7   351      4.4   911.2    0.00     521    75.2
 272    8:50   71.9    40    2.6   304      5.0   911.3    0.00     824    75.2
 272    9:00   73.6    38    2.8   308      6.4   911.4    0.00     796    75.3
 272    9:10   74.3    35    2.7   276      6.1   911.5    0.00     763    75.4
 272    9:20   75.9    33    2.5   299      5.9   912.1    0.00     760    75.5
 272    9:30   76.8    32    2.5   290      6.7   912.5    0.00     765    75.7
 272    9:40   77.8    31    2.0   304      4.8   912.7    0.00     685    76.0
 272    9:50   77.8    30    2.3   350      4.2   912.6    0.00     491    76.4
 272   10:00   77.8    30    1.8    19      4.9   912.2    0.00     337    76.7
 272   10:10   77.6    30    1.9    14      4.5   912.2    0.00     372    77.1
 272   10:20   79.1    28    1.6   359      4.7   912.3    0.00     885    77.5
 272   10:30   78.8    29    1.2   337      3.2   912.0    0.00     281    77.8
 272   10:40   78.7    30    1.9    43      5.4   911.7    0.00     364    78.1
 272   10:50   78.5    28    1.8    62      3.9   911.5    0.00     336    78.3
 272   11:00   79.1    27    1.6    21      4.7   911.1    0.00     679    78.5
 272   11:10   79.7    26    1.9    42      4.7   911.7    0.00     505    78.7
 272   11:20   79.4    26    1.4     7      4.3   911.6    0.00     290    78.9
 272   11:30   79.4    26    1.5    28      4.4   911.7    0.00     341    79.1
 272   11:40   80.5    25    1.7   331      4.8   911.1    0.00     641    79.3
 272   11:50   81.5    25    1.6   359      4.1   911.5    0.00     900    79.5
 272   12:00   82.0    25    3.7    82      7.1   911.4    0.00     468    79.7
 272   12:10   81.6    26    3.1    98      8.4   910.9    0.00     776    79.9
 272   12:20   83.0    25    3.0   108      9.1   911.2    0.00    1048    80.1
 272   12:30   83.1    25    2.5   124      8.8   911.4    0.00     808    80.3
 272   12:40   83.0    25    5.6    71     10.9   911.4    0.00     899    80.6
 272   12:50   83.4    25    5.3    71     11.2   911.1    0.00     879    80.9
 272   13:00   84.0    24    3.6    78      8.2   910.9    0.00     852    81.2
 272   13:10   83.9    24    3.5    72      9.1   911.2    0.00     837    81.6
 272   13:20   84.4    24    2.3     7      4.7   910.8    0.00     806    82.0
 272   13:30   84.7    23    4.8    72     11.8   910.8    0.00     794    82.3
 272   13:40   83.9    24    3.6    53     11.5   910.6    0.00     757    82.7
 272   13:50   83.7    24    3.4    26      6.9   910.7    0.00     342    83.1
 272   14:00   84.7    22    2.9    70     10.0   910.8    0.00     669    83.5
 272   14:10   84.9    20    1.9    97      4.7   910.2    0.00     462    83.9
 272   14:20   83.8    21    4.8    90     12.6   910.0    0.00     144    84.2
 272   14:30   83.1    21    4.2    96      9.9   910.0    0.00     247    84.5
 272   14:40   83.8    20    2.3    80      6.3   910.0    0.00     271    84.8
 272   14:50   84.8    20    5.2    86     12.2   910.3    0.00     124    85.0
 272   15:00   85.0    19    2.4   137      9.7   909.7    0.00     151    85.2
 272   15:10   83.6    19    2.9   138      9.3   910.2    0.00     165    85.3
 272   15:20   82.8    19    2.6   160      6.2   910.1    0.00     102    85.4
 272   15:30   82.6    19    3.0   170      8.4   909.7    0.00     108    85.5
 272   15:40   82.4    20    2.7   168      6.2   909.8    0.00      87    85.6
 272   15:50   82.4    19    1.4   136      5.2   909.5    0.00      62    85.6
 272   16:00   81.8    20    1.8   118      6.9   909.9    0.00      67    85.6
 272   16:10   81.5    22    1.5   139      5.8   909.9    0.00      66    85.6
 272   16:20   81.5    23    2.6   182      7.3   909.7    0.00      55    85.5
 272   16:30   81.1    24    3.6   184      6.4   910.3    0.00      38    85.4
 272   16:40   81.0    24    2.1   172      3.9   910.0    0.00      23    85.3
 272   16:50   80.9    25    1.6   217      3.4   910.1    0.00      16    85.2
 272   17:00   80.6    25    1.3   233      3.7   910.1    0.00      10    85.1
 272   17:10   80.2    25    1.4   205      4.8   909.4    0.00       9    85.0
 272   17:20   79.8    26    1.2   246      3.9   910.4    0.00       4    84.8
 272   17:30   79.4    25    1.8   252      4.6   910.7    0.00       3    84.7
 272   17:40   79.2    25    2.5   239      4.3   910.6    0.00       3    84.6
 272   17:50   78.7    26    2.2   206      4.7   910.2    0.00       2    84.4
 272   18:00   77.8    28    0.7    93      1.7   909.8    0.00       0    84.3
 272   18:10   75.7    30    0.6    92      1.5   910.0    0.00       0    84.2
 272   18:20   75.1    31    0.1   117      1.2   909.9    0.00       0    84.0
 272   18:30   75.5    30    1.2   205      4.6   909.6    0.00       0    83.9
 272   18:40   76.9    27    1.8   228      5.0   909.9    0.00       0    83.7
 272   18:50   76.3    28    1.5   307      2.8   910.2    0.00       0    83.5
 272   19:00   75.8    28    1.2   312      2.6   910.0    0.00       0    83.3
 272   19:10   75.2    29    0.6   286      2.9   910.8    0.00       0    83.1
 272   19:20   75.3    30    1.3   286      2.9   911.4    0.00       0    83.0
 272   19:30   75.0    30    1.0   304      2.0   910.3    0.00       0    82.8
 272   19:40   74.8    29    0.6   338      2.2   911.4    0.00       0    82.6
 272   19:50   74.4    30    0.6   121      1.4   911.0    0.00       0    82.4
 272   20:00   73.6    32    0.5    75      3.1   910.8    0.00       0    82.3
 272   20:10   73.5    32    1.7    22      4.3   910.9    0.00       0    82.2
 272   20:20   73.5    35    3.5    23     10.3   910.7    0.00       0    82.0
 272   20:30   73.2    36    3.5    26      8.4   910.9    0.00       0    81.9
 272   20:40   73.0    35    3.6    30     10.0   911.0    0.00       0    81.8
 272   20:50   72.8    35    2.3    25      8.3   911.1    0.00       0    81.6
 272   21:00   72.6    35    1.6   259      4.2   911.1    0.00       0    81.5
 272   21:10   71.6    37    2.8   281      6.4   911.5    0.00       0    81.4
 272   21:20   71.5    39    2.1   280      4.5   911.4    0.00       0    81.3
 272   21:30   71.2    40    2.3   255      5.0   911.2    0.00       0    81.2
 272   21:40   71.0    40    1.1   243      2.7   911.2    0.00       0    81.0
 272   21:50   70.4    41    1.0   268      2.0   911.2    0.00       0    80.9
 272   22:00   70.0    41    1.3   245      2.9   911.2    0.00       0    80.8
 272   22:10   69.5    41    2.0   246      3.1   911.2    0.00       0    80.6
 272   22:20   69.7    42    1.5   251      2.9   911.2    0.00       0    80.5
 272   22:30   68.9    41    1.4   238      2.6   911.0    0.00       0    80.3
 272   22:40   68.5    43    2.3   248      4.1   911.1    0.00       0    80.2
 272   22:50   68.2    43    2.0   261      4.5   911.1    0.00       0    80.0
 272   23:00   68.0    44    1.8   237      3.7   911.1    0.00       0    79.9
 272   23:10   67.6    45    1.5   232      3.6   911.4    0.00       0    79.7
 272   23:20   67.4    44    2.2   241      3.4   912.4    0.00       0    79.6
 272   23:30   67.2    44    1.0   222      2.3   911.2    0.00       0    79.4
 272   23:40   66.7    44    1.8   229      3.0   910.9    0.00       0    79.3
 272   23:50   66.8    45    0.8   233      1.2   911.1    0.00       0    79.1
 273    0:00   67.0    45    0.2   224      0.7   911.3    0.00       0    79.0
 273    0:10   65.8    48    1.3    79      2.8   910.6    0.00       0    78.9
 273    0:20   65.1    49    0.2    69      1.4   911.0    0.00       0    78.7
 273    0:30   65.0    49    0.0     0      0.0   911.2    0.00       0    78.6
 273    0:40   65.2    49    0.1   193      1.3   911.2    0.00       0    78.5
 273    0:50   65.7    48    0.8   212      1.4   911.2    0.00       0    78.3
 273    1:00   66.1    48    0.1   275      1.2   912.0    0.00       0    78.2
 273    1:10   65.9    46    1.0   250      2.6   910.9    0.00       0    78.1
 273    1:20   66.2    45    1.0   234      2.5   911.1    0.00       0    78.0
 273    1:30   66.0    45    1.2   227      2.0   911.2    0.00       0    77.8
 273    1:40   65.6    46    0.1   233      0.9   911.0    0.00       0    77.7
 273    1:50   64.5    48    0.6    55      2.0   911.1    0.00       0    77.6
 273    2:00   64.1    49    0.0     0      0.0   911.7    0.00       0    77.5
 273    2:10   64.1    48    0.8   252      2.1   911.7    0.00       0    77.4

Return to Indian Springs, Nevada graphs page.


Western Regional Climate Center,wrcc@dri.edu